createdAt,value
2019-03-23T00:00:11.435Z,0.68
2019-03-23T00:01:11.424Z,0.61
2019-03-23T00:02:11.440Z,0.48
2019-03-23T00:03:11.406Z,0.52
2019-03-23T00:04:11.404Z,0.51
2019-03-23T00:05:11.386Z,0.58
2019-03-23T00:06:11.390Z,0.51
2019-03-23T00:07:11.390Z,0.53
2019-03-23T00:08:11.350Z,0.58
2019-03-23T00:09:11.354Z,0.60
2019-03-23T00:10:11.334Z,0.65
2019-03-23T00:11:11.319Z,0.62
2019-03-23T00:12:11.336Z,0.62
2019-03-23T00:13:11.302Z,0.62
2019-03-23T00:14:11.318Z,0.65
2019-03-23T00:15:11.283Z,0.64
2019-03-23T00:16:11.270Z,0.60
2019-03-23T00:17:11.286Z,0.57
2019-03-23T00:18:11.257Z,0.60
2019-03-23T00:19:11.237Z,0.58
2019-03-23T00:20:11.241Z,0.52
2019-03-23T00:21:11.229Z,0.52
2019-03-23T00:22:11.234Z,0.42
2019-03-23T00:23:11.236Z,0.36
2019-03-23T00:24:11.192Z,0.34
2019-03-23T00:25:11.209Z,0.30
2019-03-23T00:26:13.238Z,0.30
2019-03-23T00:27:11.163Z,0.34
2019-03-23T00:28:11.167Z,0.31
2019-03-23T00:29:11.138Z,0.25
2019-03-23T00:30:11.129Z,0.24
2019-03-23T00:31:11.162Z,0.33
2019-03-23T00:32:11.137Z,0.25
2019-03-23T00:33:11.141Z,0.28
2019-03-23T00:34:11.101Z,0.27
2019-03-23T00:35:11.082Z,0.30
2019-03-23T00:36:11.096Z,0.31
2019-03-23T00:37:11.096Z,0.33
2019-03-23T00:38:11.054Z,0.21
2019-03-23T00:39:11.036Z,0.13
2019-03-23T00:40:11.060Z,0.12
2019-03-23T00:41:11.021Z,0.07
2019-03-23T00:42:11.010Z,0.00
2019-03-23T00:43:11.004Z,0.03
2019-03-23T00:44:10.988Z,0.02
2019-03-23T00:45:10.985Z,0.02
2019-03-23T00:46:10.995Z,-0.08
2019-03-23T00:47:10.965Z,-0.09
2019-03-23T00:48:10.946Z,-0.04
2019-03-23T00:49:11.061Z,0.00
2019-03-23T00:50:10.928Z,-0.08
2019-03-23T00:51:10.925Z,-0.11
2019-03-23T00:52:10.917Z,-0.04
2019-03-23T00:53:10.907Z,0.00
2019-03-23T00:54:10.895Z,-0.06
2019-03-23T00:55:10.919Z,-0.16
2019-03-23T00:56:10.865Z,-0.18
2019-03-23T00:57:10.868Z,-0.09
2019-03-23T00:58:10.856Z,-0.19
2019-03-23T00:59:10.838Z,-0.22
2019-03-23T01:00:10.825Z,-0.23
2019-03-23T01:01:10.862Z,-0.22
2019-03-23T01:02:10.811Z,-0.24
2019-03-23T01:03:10.801Z,-0.13
2019-03-23T01:04:10.830Z,-0.23
2019-03-23T01:05:10.795Z,-0.31
2019-03-23T01:06:10.802Z,-0.39
2019-03-23T01:07:10.760Z,-0.34
2019-03-23T01:08:10.780Z,-0.29
2019-03-23T01:09:10.743Z,-0.33
2019-03-23T01:10:10.738Z,-0.39
2019-03-23T01:11:10.726Z,-0.36
2019-03-23T01:12:10.734Z,-0.37
2019-03-23T01:13:10.696Z,-0.41
2019-03-23T01:14:10.692Z,-0.44
2019-03-23T01:15:10.712Z,-0.45
2019-03-23T01:16:10.669Z,-0.42
2019-03-23T01:17:10.665Z,-0.37
2019-03-23T01:18:10.652Z,-0.33
2019-03-23T01:19:10.640Z,-0.31
2019-03-23T01:20:10.623Z,-0.34
2019-03-23T01:21:10.638Z,-0.33
2019-03-23T01:22:10.610Z,-0.37
2019-03-23T01:23:10.600Z,-0.52
2019-03-23T01:24:10.589Z,-0.51
2019-03-23T01:25:10.586Z,-0.47
2019-03-23T01:26:10.718Z,-0.47
2019-03-23T01:27:10.589Z,-0.48
2019-03-23T01:28:10.555Z,-0.50
2019-03-23T01:29:10.565Z,-0.47
2019-03-23T01:30:10.525Z,-0.51
2019-03-23T01:31:10.522Z,-0.48
2019-03-23T01:32:10.515Z,-0.47
2019-03-23T01:33:10.531Z,-0.57
2019-03-23T01:34:10.506Z,-0.65
2019-03-23T01:35:10.480Z,-0.66
2019-03-23T01:36:10.466Z,-0.72
2019-03-23T01:37:10.453Z,-0.73
2019-03-23T01:38:10.445Z,-0.86
2019-03-23T01:39:10.467Z,-0.69
2019-03-23T01:40:10.430Z,-0.77
2019-03-23T01:41:10.422Z,-0.69
2019-03-23T01:42:10.428Z,-0.72
2019-03-23T01:43:10.428Z,-0.69
2019-03-23T01:44:10.404Z,-0.66
2019-03-23T01:45:10.373Z,-0.57
2019-03-23T01:46:10.370Z,-0.60
2019-03-23T01:47:10.356Z,-0.54
2019-03-23T01:48:10.371Z,-0.55
2019-03-23T01:49:10.341Z,-0.51
2019-03-23T01:50:10.337Z,-0.63
2019-03-23T01:51:10.310Z,-0.62
2019-03-23T01:52:10.352Z,-0.65
2019-03-23T01:53:10.327Z,-0.63
2019-03-23T01:54:10.286Z,-0.80
2019-03-23T01:55:10.276Z,-0.70
2019-03-23T01:56:10.263Z,-0.72
2019-03-23T01:57:10.253Z,-0.80
2019-03-23T01:58:10.276Z,-0.81
2019-03-23T01:59:10.232Z,-0.87
2019-03-23T02:00:10.234Z,-0.78
2019-03-23T02:01:10.220Z,-0.84
2019-03-23T02:02:10.215Z,-0.84
2019-03-23T02:03:10.229Z,-0.86
2019-03-23T02:04:10.186Z,-0.99
2019-03-23T02:05:10.177Z,-1.02
2019-03-23T02:06:10.165Z,-1.05
2019-03-23T02:07:14.090Z,-1.07
2019-03-23T02:08:10.168Z,-1.07
2019-03-23T02:09:10.151Z,-1.06
2019-03-23T02:10:10.181Z,-1.05
2019-03-23T02:11:10.127Z,-1.03
2019-03-23T02:12:10.120Z,-1.00
2019-03-23T02:13:10.117Z,-0.92
2019-03-23T02:14:10.133Z,-0.95
2019-03-23T02:15:10.087Z,-1.00
2019-03-23T02:16:10.073Z,-1.02
2019-03-23T02:17:10.056Z,-1.07
2019-03-23T02:18:10.051Z,-1.03
2019-03-23T02:19:10.031Z,-1.12
2019-03-23T02:20:10.045Z,-1.05
2019-03-23T02:21:10.040Z,-1.20
2019-03-23T02:22:10.031Z,-1.15
2019-03-23T02:23:10.108Z,-1.17
2019-03-23T02:24:09.987Z,-1.17
2019-03-23T02:25:09.981Z,-1.17
2019-03-23T02:26:09.962Z,-1.15
2019-03-23T02:27:09.950Z,-1.23
2019-03-23T02:28:09.969Z,-1.36
2019-03-23T02:29:09.930Z,-1.33
2019-03-23T02:30:09.942Z,-1.28
2019-03-23T02:31:09.953Z,-1.36
2019-03-23T02:32:09.905Z,-1.38
2019-03-23T02:33:09.894Z,-1.38
2019-03-23T02:34:09.917Z,-1.39
2019-03-23T02:35:09.877Z,-1.35
2019-03-23T02:36:09.861Z,-1.41
2019-03-23T02:37:09.868Z,-1.42
2019-03-23T02:38:09.843Z,-1.35
2019-03-23T02:39:09.879Z,-1.51
2019-03-23T02:40:09.828Z,-1.56
2019-03-23T02:41:09.813Z,-1.54
2019-03-23T02:42:09.804Z,-1.62
2019-03-23T02:43:09.824Z,-1.59
2019-03-23T02:44:09.782Z,-1.57
2019-03-23T02:45:10.160Z,-1.56
2019-03-23T02:46:09.770Z,-1.49
2019-03-23T02:47:09.759Z,-1.46
2019-03-23T02:48:09.784Z,-1.45
2019-03-23T02:49:09.742Z,-1.43
2019-03-23T02:50:09.735Z,-1.45
2019-03-23T02:51:09.726Z,-1.43
2019-03-23T02:52:09.706Z,-1.41
2019-03-23T02:53:09.728Z,-1.42
2019-03-23T02:54:09.688Z,-1.49
2019-03-23T02:55:09.717Z,-1.48
2019-03-23T02:56:09.684Z,-1.56
2019-03-23T02:57:09.659Z,-1.59
2019-03-23T02:58:09.686Z,-1.60
2019-03-23T02:59:09.644Z,-1.70
2019-03-23T03:00:09.629Z,-1.66
2019-03-23T03:01:09.610Z,-1.60
2019-03-23T03:02:09.625Z,-1.74
2019-03-23T03:03:09.734Z,-1.72
2019-03-23T03:04:09.582Z,-1.72
2019-03-23T03:05:09.576Z,-1.60
2019-03-23T03:06:09.604Z,-1.53
2019-03-23T03:07:09.547Z,-1.42
2019-03-23T03:08:09.575Z,-1.45
2019-03-23T03:09:09.527Z,-1.48
2019-03-23T03:10:09.531Z,-1.39
2019-03-23T03:11:09.722Z,-1.46
2019-03-23T03:12:09.763Z,-1.49
2019-03-23T03:13:09.940Z,-1.53
2019-03-23T03:14:09.776Z,-1.51
2019-03-23T03:15:09.725Z,-1.56
2019-03-23T03:16:09.759Z,-1.59
2019-03-23T03:17:09.704Z,-1.72
2019-03-23T03:18:09.917Z,-1.78
2019-03-23T03:19:09.709Z,-1.85
2019-03-23T03:20:09.684Z,-1.87
2019-03-23T03:21:09.750Z,-1.85
2019-03-23T03:22:09.677Z,-1.80
2019-03-23T03:23:10.019Z,-1.90
2019-03-23T03:24:09.641Z,-1.87
2019-03-23T03:25:09.585Z,-1.87
2019-03-23T03:26:09.565Z,-1.87
2019-03-23T03:27:09.658Z,-2.00
2019-03-23T03:28:09.622Z,-2.03
2019-03-23T03:29:09.786Z,-2.10
2019-03-23T03:30:09.544Z,-1.96
2019-03-23T03:31:10.101Z,-1.98
2019-03-23T03:32:09.540Z,-2.03
2019-03-23T03:33:09.516Z,-2.08
2019-03-23T03:34:09.698Z,-1.98
2019-03-23T03:35:09.518Z,-1.85
2019-03-23T03:36:09.695Z,-1.92
2019-03-23T03:37:09.493Z,-1.90
2019-03-23T03:38:09.461Z,-1.88
2019-03-23T03:39:09.435Z,-1.95
2019-03-23T03:40:09.408Z,-1.90
2019-03-23T03:41:09.683Z,-1.87
2019-03-23T03:42:09.407Z,-1.98
2019-03-23T03:43:09.453Z,-1.98
2019-03-23T03:44:09.574Z,-1.98
2019-03-23T03:45:09.426Z,-2.10
2019-03-23T03:46:09.389Z,-2.10
2019-03-23T03:47:09.399Z,-2.10
2019-03-23T03:48:09.351Z,-2.08
2019-03-23T03:49:12.669Z,-1.99
2019-03-23T03:50:09.579Z,-1.99
2019-03-23T03:51:09.123Z,-2.03
2019-03-23T03:52:09.172Z,-2.10
2019-03-23T03:53:09.171Z,-2.10
2019-03-23T03:54:09.102Z,-2.03
2019-03-23T03:55:09.092Z,-1.96
2019-03-23T03:56:09.084Z,-1.99
2019-03-23T03:57:09.062Z,-2.10
2019-03-23T03:58:09.065Z,-2.08
2019-03-23T03:59:09.098Z,-2.02
2019-03-23T04:00:09.076Z,-1.99
2019-03-23T04:01:09.024Z,-2.11
2019-03-23T04:02:09.018Z,-2.10
2019-03-23T04:03:09.024Z,-2.05
2019-03-23T04:04:09.037Z,-2.14
2019-03-23T04:05:09.022Z,-2.16
2019-03-23T04:06:08.990Z,-2.11
2019-03-23T04:07:08.971Z,-2.10
2019-03-23T04:08:11.762Z,-2.16
2019-03-23T04:09:08.983Z,-2.08
2019-03-23T04:10:08.938Z,-2.14
2019-03-23T04:11:08.945Z,-2.13
2019-03-23T04:12:08.944Z,-2.16
2019-03-23T04:13:08.905Z,-2.10
2019-03-23T04:14:08.940Z,-2.10
2019-03-23T04:15:08.898Z,-2.11
2019-03-23T04:16:08.879Z,-2.13
2019-03-23T04:17:08.877Z,-2.10
2019-03-23T04:18:08.870Z,-2.13
2019-03-23T04:19:08.931Z,-2.11
2019-03-23T04:20:08.883Z,-2.06
2019-03-23T04:21:08.833Z,-1.96
2019-03-23T04:22:08.830Z,-2.11
2019-03-23T04:23:08.829Z,-2.10
2019-03-23T04:24:08.809Z,-2.16
2019-03-23T04:25:08.842Z,-2.10
2019-03-23T04:26:08.775Z,-2.03
2019-03-23T04:27:09.012Z,-2.06
2019-03-23T04:28:08.764Z,-2.00
2019-03-23T04:29:08.745Z,-1.98
2019-03-23T04:30:08.751Z,-1.92
2019-03-23T04:31:08.742Z,-1.93
2019-03-23T04:32:08.713Z,-1.98
2019-03-23T04:33:08.787Z,-1.96
2019-03-23T04:34:08.729Z,-1.85
2019-03-23T04:35:08.712Z,-2.00
2019-03-23T04:36:08.690Z,-1.88
2019-03-23T04:37:08.682Z,-1.95
2019-03-23T04:38:08.663Z,-2.10
2019-03-23T04:39:08.708Z,-2.13
2019-03-23T04:40:08.651Z,-1.99
2019-03-23T04:41:08.640Z,-2.06
2019-03-23T04:42:08.652Z,-2.18
2019-03-23T04:43:08.624Z,-2.14
2019-03-23T04:44:08.657Z,-2.24
2019-03-23T04:45:08.593Z,-2.39
2019-03-23T04:46:08.585Z,-2.29
2019-03-23T04:47:08.578Z,-2.43
2019-03-23T04:48:08.560Z,-2.42
2019-03-23T04:49:08.604Z,-2.51
2019-03-23T04:50:08.544Z,-2.51
2019-03-23T04:51:08.532Z,-2.58
2019-03-23T04:52:08.517Z,-2.56
2019-03-23T04:53:08.524Z,-2.56
2019-03-23T04:54:08.547Z,-2.47
2019-03-23T04:55:08.497Z,-2.29
2019-03-23T04:56:08.487Z,-2.39
2019-03-23T04:57:08.475Z,-2.32
2019-03-23T04:58:08.470Z,-2.38
2019-03-23T04:59:08.526Z,-2.33
2019-03-23T05:00:08.431Z,-2.29
2019-03-23T05:01:08.418Z,-2.16
2019-03-23T05:02:08.418Z,-2.21
2019-03-23T05:03:08.401Z,-2.14
2019-03-23T05:04:08.435Z,-2.18
2019-03-23T05:05:08.475Z,-2.23
2019-03-23T05:06:08.372Z,-2.23
2019-03-23T05:07:08.359Z,-2.23
2019-03-23T05:08:08.356Z,-2.35
2019-03-23T05:09:08.395Z,-2.35
2019-03-23T05:10:08.335Z,-2.32
2019-03-23T05:11:08.321Z,-2.35
2019-03-23T05:12:08.315Z,-2.36
2019-03-23T05:13:08.308Z,-2.45
2019-03-23T05:14:08.337Z,-2.36
2019-03-23T05:15:08.279Z,-2.42
2019-03-23T05:16:08.283Z,-2.47
2019-03-23T05:17:08.262Z,-2.53
2019-03-23T05:18:08.257Z,-2.60
2019-03-23T05:19:08.275Z,-2.61
2019-03-23T05:20:08.230Z,-2.60
2019-03-23T05:21:08.224Z,-2.54
2019-03-23T05:22:08.214Z,-2.54
2019-03-23T05:23:08.214Z,-2.58
2019-03-23T05:24:08.218Z,-2.54
2019-03-23T05:25:08.187Z,-2.47
2019-03-23T05:26:08.183Z,-2.57
2019-03-23T05:27:08.167Z,-2.48
2019-03-23T05:28:08.154Z,-2.36
2019-03-23T05:29:08.177Z,-2.40
2019-03-23T05:30:08.149Z,-2.48
2019-03-23T05:31:08.136Z,-2.48
2019-03-23T05:32:08.124Z,-2.45
2019-03-23T05:33:08.106Z,-2.39
2019-03-23T05:34:08.097Z,-2.36
2019-03-23T05:35:08.114Z,-2.35
2019-03-23T05:36:08.071Z,-2.32
2019-03-23T05:37:08.094Z,-2.26
2019-03-23T05:38:08.059Z,-2.20
2019-03-23T05:39:08.055Z,-2.18
2019-03-23T05:40:08.045Z,-2.26
2019-03-23T05:41:08.034Z,-2.28
2019-03-23T05:42:08.014Z,-2.26
2019-03-23T05:43:08.047Z,-2.33
2019-03-23T05:44:08.016Z,-2.28
2019-03-23T05:45:07.981Z,-2.11
2019-03-23T05:46:07.977Z,-2.21
2019-03-23T05:47:07.967Z,-2.02
2019-03-23T05:48:07.950Z,-1.93
2019-03-23T05:49:07.969Z,-1.80
2019-03-23T05:50:07.935Z,-1.64
2019-03-23T05:51:07.927Z,-1.51
2019-03-23T05:52:07.916Z,-1.33
2019-03-23T05:53:07.907Z,-1.33
2019-03-23T05:54:07.920Z,-1.15
2019-03-23T05:55:07.887Z,-1.06
2019-03-23T05:56:07.885Z,-1.06
2019-03-23T05:57:07.876Z,-0.86
2019-03-23T05:58:07.868Z,-0.70
2019-03-23T05:59:07.873Z,-0.62
2019-03-23T06:00:07.843Z,-0.51
2019-03-23T06:01:07.820Z,-0.34
2019-03-23T06:02:07.814Z,-0.19
2019-03-23T06:03:07.808Z,-0.27
2019-03-23T06:04:07.827Z,-0.11
2019-03-23T06:05:07.944Z,-0.01
2019-03-23T06:06:07.790Z,0.18
2019-03-23T06:07:07.776Z,0.28
2019-03-23T06:08:07.749Z,0.27
2019-03-23T06:09:07.785Z,0.46
2019-03-23T06:10:07.737Z,0.60
2019-03-23T06:11:07.721Z,0.65
2019-03-23T06:12:07.715Z,0.65
2019-03-23T06:13:07.712Z,0.82
2019-03-23T06:14:07.719Z,0.94
2019-03-23T06:15:07.686Z,1.08
2019-03-23T06:16:07.674Z,1.07
2019-03-23T06:17:07.660Z,1.16
2019-03-23T06:18:07.704Z,1.21
2019-03-23T06:19:07.675Z,1.46
2019-03-23T06:20:07.638Z,1.51
2019-03-23T06:21:07.630Z,1.61
2019-03-23T06:22:07.618Z,1.69
2019-03-23T06:23:07.609Z,1.76
2019-03-23T06:24:07.623Z,1.90
2019-03-23T06:25:07.591Z,1.99
2019-03-23T06:26:07.611Z,2.12
2019-03-23T06:27:07.569Z,2.17
2019-03-23T06:28:07.548Z,2.26
2019-03-23T06:29:07.549Z,2.30
2019-03-23T06:30:07.570Z,2.44
2019-03-23T06:31:07.527Z,2.48
2019-03-23T06:32:07.523Z,2.58
2019-03-23T06:33:07.509Z,2.58
2019-03-23T06:34:07.499Z,2.71
2019-03-23T06:35:07.520Z,2.77
2019-03-23T06:36:07.472Z,2.84
2019-03-23T06:37:07.481Z,2.88
2019-03-23T06:38:07.453Z,3.03
2019-03-23T06:39:07.445Z,3.02
2019-03-23T06:40:07.472Z,3.13
2019-03-23T06:41:07.434Z,3.25
2019-03-23T06:42:07.426Z,3.36
2019-03-23T06:43:07.400Z,3.43
2019-03-23T06:44:07.389Z,3.60
2019-03-23T06:45:07.406Z,3.75
2019-03-23T06:46:07.373Z,3.90
2019-03-23T06:47:07.369Z,3.97
2019-03-23T06:48:07.361Z,4.01
2019-03-23T06:49:07.338Z,4.15
2019-03-23T06:50:07.425Z,4.22
2019-03-23T06:52:51.841Z,4.46
2019-03-23T06:53:16.065Z,4.42
2019-03-23T06:54:16.130Z,4.51
2019-03-23T06:55:16.076Z,4.70
2019-03-23T06:56:16.043Z,4.77
2019-03-23T06:57:16.039Z,4.91
2019-03-23T06:58:16.020Z,4.92
2019-03-23T06:59:16.018Z,5.10
2019-03-23T07:00:16.004Z,5.23
2019-03-23T07:01:16.019Z,5.32
2019-03-23T07:02:15.981Z,5.56
2019-03-23T07:03:15.968Z,5.67
2019-03-23T07:04:15.990Z,5.67
2019-03-23T07:05:15.974Z,5.78
2019-03-23T07:06:15.942Z,5.91
2019-03-23T07:07:15.930Z,5.95
2019-03-23T07:08:15.915Z,6.03
2019-03-23T07:09:16.621Z,6.19
2019-03-23T07:10:15.929Z,6.40
2019-03-23T07:11:15.886Z,6.51
2019-03-23T07:12:15.894Z,6.59
2019-03-23T07:13:15.868Z,6.73
2019-03-23T07:14:15.855Z,6.89
2019-03-23T07:15:20.181Z,6.91
2019-03-23T07:16:15.840Z,7.02
2019-03-23T07:17:15.830Z,7.09
2019-03-23T07:18:15.828Z,7.17
2019-03-23T07:19:15.811Z,7.22
2019-03-23T07:20:15.829Z,7.38
2019-03-23T07:21:15.787Z,7.53
2019-03-23T07:22:15.777Z,7.56
2019-03-23T07:23:15.760Z,7.67
2019-03-23T07:24:15.751Z,7.74
2019-03-23T07:25:15.790Z,7.84
2019-03-23T07:26:15.736Z,7.79
2019-03-23T07:27:15.742Z,7.94
2019-03-23T07:28:15.708Z,7.99
2019-03-23T07:29:15.709Z,8.12
2019-03-23T07:30:15.700Z,8.35
2019-03-23T07:31:15.691Z,8.48
2019-03-23T07:32:15.704Z,8.60
2019-03-23T07:33:15.663Z,8.71
2019-03-23T07:34:15.658Z,8.71
2019-03-23T07:35:15.665Z,8.78
2019-03-23T07:36:15.628Z,8.90
2019-03-23T07:37:15.627Z,9.09
2019-03-23T07:38:16.324Z,9.43
2019-03-23T07:39:26.490Z,9.49
2019-03-23T07:40:16.612Z,9.64
2019-03-23T07:41:15.580Z,9.81
2019-03-23T07:42:15.577Z,9.96
2019-03-23T07:43:15.559Z,10.07
2019-03-23T07:44:15.557Z,10.14
2019-03-23T07:45:15.561Z,10.25
2019-03-23T07:46:15.526Z,10.30
2019-03-23T07:47:15.541Z,10.44
2019-03-23T07:48:15.505Z,10.68
2019-03-23T07:49:15.499Z,10.89
2019-03-23T07:50:15.480Z,10.96
2019-03-23T07:51:15.507Z,11.16
2019-03-23T07:52:15.463Z,11.35
2019-03-23T07:53:15.447Z,11.38
2019-03-23T07:54:15.437Z,11.50
2019-03-23T07:55:15.439Z,11.74
2019-03-23T07:56:15.441Z,11.99
2019-03-23T07:57:15.414Z,12.08
2019-03-23T07:58:15.401Z,12.12
2019-03-23T07:59:15.412Z,12.23
2019-03-23T08:00:15.388Z,12.27
2019-03-23T08:01:15.419Z,12.57
2019-03-23T08:02:15.358Z,12.64
2019-03-23T08:03:15.351Z,12.88
2019-03-23T08:04:15.337Z,13.09
2019-03-23T08:05:15.321Z,13.24
2019-03-23T08:06:15.311Z,13.38
2019-03-23T08:07:15.433Z,13.59
2019-03-23T08:08:15.291Z,13.65
2019-03-23T08:09:20.387Z,13.61
2019-03-23T08:10:16.291Z,13.69
2019-03-23T08:11:15.259Z,13.63
2019-03-23T08:12:15.246Z,13.65
2019-03-23T08:13:15.269Z,13.65
2019-03-23T08:14:15.230Z,13.80
2019-03-23T08:15:15.255Z,13.89
2019-03-23T08:16:15.213Z,14.06
2019-03-23T08:17:15.205Z,14.37
2019-03-23T08:18:15.210Z,14.56
2019-03-23T08:19:15.172Z,14.52
2019-03-23T08:20:15.212Z,14.49
2019-03-23T08:21:15.168Z,14.44
2019-03-23T08:22:15.142Z,14.68
2019-03-23T08:23:15.134Z,14.91
2019-03-23T08:24:15.129Z,15.05
2019-03-23T08:25:15.138Z,15.35
2019-03-23T08:26:15.097Z,15.51
2019-03-23T08:27:15.090Z,15.78
2019-03-23T08:28:15.081Z,16.03
2019-03-23T08:29:15.067Z,16.22
2019-03-23T08:30:15.093Z,16.38
2019-03-23T08:31:15.054Z,16.38
2019-03-23T08:32:15.052Z,16.48
2019-03-23T08:33:15.033Z,16.53
2019-03-23T08:34:15.019Z,16.80
2019-03-23T08:35:15.040Z,16.93
2019-03-23T08:36:15.004Z,17.10
2019-03-23T08:37:14.993Z,17.13
2019-03-23T08:38:14.979Z,17.25
2019-03-23T08:39:14.969Z,17.46
2019-03-23T08:40:14.980Z,17.71
2019-03-23T08:41:14.943Z,17.87
2019-03-23T08:42:14.930Z,17.92
2019-03-23T08:43:14.940Z,17.94
2019-03-23T08:44:14.920Z,17.92
2019-03-23T08:45:14.943Z,18.06
2019-03-23T08:46:14.901Z,18.28
2019-03-23T08:47:14.883Z,18.42
2019-03-23T08:48:14.869Z,18.21
2019-03-23T08:49:14.865Z,18.40
2019-03-23T08:50:14.883Z,18.65
2019-03-23T08:51:14.844Z,18.57
2019-03-23T08:52:14.843Z,18.59
2019-03-23T08:53:14.827Z,18.77
2019-03-23T08:54:14.808Z,19.10
2019-03-23T08:55:14.810Z,19.05
2019-03-23T08:56:14.807Z,19.25
2019-03-23T08:57:14.789Z,19.50
2019-03-23T08:58:14.797Z,19.57
2019-03-23T08:59:14.761Z,19.72
2019-03-23T09:00:14.777Z,19.61
2019-03-23T09:01:14.737Z,19.70
2019-03-23T09:02:14.728Z,19.18
2019-03-23T09:03:14.722Z,18.94
2019-03-23T09:04:14.704Z,19.05
2019-03-23T09:05:14.816Z,18.84
2019-03-23T09:06:14.722Z,18.99
2019-03-23T09:07:14.671Z,19.31
2019-03-23T09:08:14.664Z,19.66
2019-03-23T09:09:14.651Z,19.95
2019-03-23T09:10:14.678Z,20.43
2019-03-23T09:11:20.365Z,20.69
2019-03-23T09:12:15.616Z,20.93
2019-03-23T09:13:14.607Z,21.24
2019-03-23T09:14:14.594Z,21.27
2019-03-23T09:15:14.622Z,21.24
2019-03-23T09:16:14.611Z,21.01
2019-03-23T09:17:14.604Z,21.29
2019-03-23T09:18:14.561Z,21.34
2019-03-23T09:19:14.657Z,21.26
2019-03-23T09:20:14.739Z,21.06
2019-03-23T09:21:14.625Z,21.08
2019-03-23T09:22:14.569Z,21.32
2019-03-23T09:23:15.312Z,21.69
2019-03-23T09:24:14.493Z,22.06
2019-03-23T09:25:14.489Z,22.38
2019-03-23T09:26:15.344Z,22.65
2019-03-23T09:27:14.535Z,22.71
2019-03-23T09:28:14.482Z,21.95
2019-03-23T09:29:14.456Z,21.61
2019-03-23T09:30:14.589Z,21.50
2019-03-23T09:31:14.423Z,21.39
2019-03-23T09:32:14.408Z,21.83
2019-03-23T09:33:14.396Z,22.29
2019-03-23T09:34:14.393Z,22.59
2019-03-23T09:35:14.379Z,22.71
2019-03-23T09:36:14.415Z,22.39
2019-03-23T09:37:14.364Z,22.12
2019-03-23T09:38:14.352Z,22.43
2019-03-23T09:39:14.340Z,22.74
2019-03-23T09:40:14.339Z,22.74
2019-03-23T09:41:14.319Z,23.02
2019-03-23T09:42:14.340Z,23.50
2019-03-23T09:43:14.294Z,23.90
2019-03-23T09:44:14.287Z,24.04
2019-03-23T09:45:14.577Z,23.98
2019-03-23T09:46:14.270Z,24.27
2019-03-23T09:47:14.260Z,24.38
2019-03-23T09:48:14.283Z,24.47
2019-03-23T09:49:14.236Z,24.44
2019-03-23T09:50:14.226Z,24.01
2019-03-23T09:51:14.217Z,23.98
2019-03-23T09:52:14.208Z,23.46
2019-03-23T09:53:14.225Z,23.43
2019-03-23T09:54:14.181Z,23.47
2019-03-23T09:55:14.172Z,23.98
2019-03-23T09:56:14.191Z,24.41
2019-03-23T09:57:14.150Z,24.68
2019-03-23T09:58:14.137Z,24.95
2019-03-23T09:59:14.151Z,25.27
2019-03-23T10:00:14.132Z,25.30
2019-03-23T10:01:14.105Z,24.83
2019-03-23T10:02:14.092Z,24.71
2019-03-23T10:03:14.100Z,24.47
2019-03-23T10:04:14.077Z,24.97
2019-03-23T10:05:14.190Z,25.17
2019-03-23T10:06:14.084Z,25.53
2019-03-23T10:07:14.076Z,25.64
2019-03-23T10:08:14.054Z,25.50
2019-03-23T10:09:14.028Z,25.71
2019-03-23T10:10:21.669Z,25.87
2019-03-23T10:11:15.049Z,26.15
2019-03-23T10:12:13.996Z,25.79
2019-03-23T10:13:13.996Z,25.20
2019-03-23T10:14:13.973Z,25.09
2019-03-23T10:15:13.967Z,24.80
2019-03-23T10:16:13.982Z,24.97
2019-03-23T10:17:13.957Z,25.12
2019-03-23T10:18:13.946Z,25.30
2019-03-23T10:19:13.927Z,25.35
2019-03-23T10:20:13.909Z,25.80
2019-03-23T10:21:13.929Z,26.04
2019-03-23T10:22:13.907Z,26.27
2019-03-23T10:23:13.878Z,26.09
2019-03-23T10:24:13.872Z,25.94
2019-03-23T10:25:13.857Z,26.20
2019-03-23T10:26:13.880Z,26.54
2019-03-23T10:27:13.838Z,26.87
2019-03-23T10:28:13.834Z,27.05
2019-03-23T10:29:13.827Z,27.36
2019-03-23T10:30:13.809Z,27.66
2019-03-23T10:31:13.840Z,27.85
2019-03-23T10:32:13.785Z,28.04
2019-03-23T10:33:13.773Z,28.29
2019-03-23T10:34:13.783Z,28.51
2019-03-23T10:35:13.780Z,28.56
2019-03-23T10:36:13.775Z,28.01
2019-03-23T10:37:13.740Z,27.51
2019-03-23T10:38:13.725Z,27.41
2019-03-23T10:39:13.716Z,27.39
2019-03-23T10:40:13.713Z,27.73
2019-03-23T10:41:13.735Z,27.64
2019-03-23T10:42:16.137Z,27.94
2019-03-23T10:43:13.686Z,28.11
2019-03-23T10:44:13.665Z,28.25
2019-03-23T10:45:13.656Z,28.58
2019-03-23T10:46:13.681Z,28.85
2019-03-23T10:47:13.633Z,29.10
2019-03-23T10:48:13.627Z,28.84
2019-03-23T10:49:13.615Z,28.95
2019-03-23T10:50:13.608Z,28.97
2019-03-23T10:51:13.629Z,29.33
2019-03-23T10:52:13.606Z,29.38
2019-03-23T10:53:22.755Z,29.16
2019-03-23T10:54:13.575Z,29.41
2019-03-23T10:55:13.563Z,29.60
2019-03-23T10:56:13.575Z,29.60
2019-03-23T10:57:13.547Z,29.45
2019-03-23T10:58:13.538Z,29.52
2019-03-23T10:59:13.521Z,29.59
2019-03-23T11:00:13.514Z,29.71
2019-03-23T11:01:13.520Z,29.81
2019-03-23T11:02:13.490Z,29.66
2019-03-23T11:03:13.477Z,30.05
2019-03-23T11:04:13.472Z,30.08
2019-03-23T11:05:13.472Z,29.99
2019-03-23T11:06:13.483Z,29.90
2019-03-23T11:07:15.354Z,29.28
2019-03-23T11:08:13.428Z,29.35
2019-03-23T11:09:13.454Z,29.68
2019-03-23T11:10:13.421Z,29.93
2019-03-23T11:11:13.422Z,30.09
2019-03-23T11:12:13.394Z,30.53
2019-03-23T11:13:13.387Z,30.38
2019-03-23T11:14:13.362Z,30.08
2019-03-23T11:15:13.359Z,30.05
2019-03-23T11:16:13.457Z,30.47
2019-03-23T11:17:13.334Z,30.71
2019-03-23T11:18:13.327Z,31.08
2019-03-23T11:19:13.806Z,31.23
2019-03-23T11:20:13.307Z,31.49
2019-03-23T11:21:13.319Z,31.73
2019-03-23T11:22:13.365Z,31.91
2019-03-23T11:23:13.273Z,32.02
2019-03-23T11:24:13.266Z,31.75
2019-03-23T11:25:13.254Z,31.84
2019-03-23T11:26:13.288Z,31.33
2019-03-23T11:27:13.238Z,31.05
2019-03-23T11:28:13.230Z,30.74
2019-03-23T11:29:13.216Z,30.26
2019-03-23T11:30:13.213Z,30.00
2019-03-23T11:31:13.222Z,29.65
2019-03-23T11:32:13.216Z,29.84
2019-03-23T11:33:13.178Z,30.36
2019-03-23T11:34:17.790Z,30.76
2019-03-23T11:35:14.373Z,31.42
2019-03-23T11:36:13.168Z,31.84
2019-03-23T11:37:13.239Z,32.36
2019-03-23T11:38:13.131Z,32.44
2019-03-23T11:39:13.118Z,32.69
2019-03-23T11:40:13.128Z,32.24
2019-03-23T11:41:13.135Z,32.29
2019-03-23T11:42:13.098Z,32.06
2019-03-23T11:43:13.853Z,31.27
2019-03-23T11:44:13.071Z,31.39
2019-03-23T11:45:13.061Z,31.60
2019-03-23T11:46:13.082Z,31.36
2019-03-23T11:47:13.896Z,31.65
2019-03-23T11:48:13.927Z,31.84
2019-03-23T11:49:13.861Z,31.91
2019-03-23T11:50:13.014Z,32.21
2019-03-23T11:51:13.457Z,32.25
2019-03-23T11:52:13.031Z,31.95
2019-03-23T11:53:12.991Z,31.57
2019-03-23T11:54:12.974Z,31.53
2019-03-23T11:55:12.965Z,31.53
2019-03-23T11:56:12.997Z,31.05
2019-03-23T11:57:12.966Z,30.59
2019-03-23T11:58:12.932Z,30.57
2019-03-23T11:59:12.922Z,30.69
2019-03-23T12:00:12.911Z,31.24
2019-03-23T12:01:12.937Z,31.48
2019-03-23T12:02:12.944Z,32.20
2019-03-23T12:03:12.892Z,32.22
2019-03-23T12:04:12.870Z,31.98
2019-03-23T12:05:12.884Z,31.40
2019-03-23T12:06:12.892Z,31.67
2019-03-23T12:07:12.845Z,31.49
2019-03-23T12:08:12.876Z,31.98
2019-03-23T12:09:12.833Z,32.32
2019-03-23T12:10:12.819Z,32.14
2019-03-23T12:11:12.869Z,32.64
2019-03-23T12:12:12.794Z,33.13
2019-03-23T12:13:12.791Z,33.41
2019-03-23T12:14:12.783Z,33.33
2019-03-23T12:15:12.773Z,32.69
2019-03-23T12:16:12.790Z,30.96
2019-03-23T12:17:12.756Z,31.06
2019-03-23T12:18:12.745Z,31.79
2019-03-23T12:19:12.769Z,31.12
2019-03-23T12:20:12.721Z,30.94
2019-03-23T12:21:12.751Z,31.48
2019-03-23T12:22:12.710Z,31.77
2019-03-23T12:23:12.693Z,31.33
2019-03-23T12:24:12.690Z,31.46
2019-03-23T12:25:12.672Z,31.72
2019-03-23T12:26:12.706Z,31.57
2019-03-23T12:27:12.658Z,31.53
2019-03-23T12:28:12.644Z,31.40
2019-03-23T12:29:12.635Z,31.12
2019-03-23T12:30:12.631Z,31.08
2019-03-23T12:31:12.640Z,30.99
2019-03-23T12:32:12.605Z,31.48
2019-03-23T12:33:12.593Z,31.57
2019-03-23T12:34:12.579Z,31.58
2019-03-23T12:35:12.580Z,31.45
2019-03-23T12:36:12.611Z,31.93
2019-03-23T12:37:12.568Z,31.96
2019-03-23T12:38:12.579Z,32.13
2019-03-23T12:39:12.537Z,32.10
2019-03-23T12:40:12.540Z,32.14
2019-03-23T12:41:22.828Z,31.73
2019-03-23T12:42:13.502Z,31.05
2019-03-23T12:43:12.517Z,30.93
2019-03-23T12:44:12.514Z,30.98
2019-03-23T12:45:12.482Z,31.50
2019-03-23T12:46:12.467Z,31.99
2019-03-23T12:47:12.482Z,32.49
2019-03-23T12:48:12.440Z,32.39
2019-03-23T12:49:12.431Z,32.67
2019-03-23T12:50:12.479Z,32.89
2019-03-23T12:51:12.423Z,32.74
2019-03-23T12:52:12.428Z,32.37
2019-03-23T12:53:12.399Z,31.87
2019-03-23T12:54:12.425Z,31.62
2019-03-23T12:55:12.393Z,31.58
2019-03-23T12:56:12.390Z,31.54
2019-03-23T12:57:12.361Z,31.48
2019-03-23T12:58:12.455Z,31.88